Blue Mound, Texas
Current Conditions -  °F | °C
As of 8:53 AM on Wednesday 22 Oct 2014 (Local Time) from KAFW Reporting Station
Few Clouds Few Clouds  
Wind Chill: 62°   Ceiling: Unl
Heat Index: 62°   Visibility: 7mi
Dew Point: 58°   Wind: 0mph
Humidity: 86%   Direction: NA
Pressure: 30.14"   Gusts: NA
Location:  32.9103°N, 97.3722°W
Report Text: KAFW 221353Z 00000KT 7SM FEW250 17/14 A3014 RMK AO2 SLP199 T01670144
Loading
Personal Weather Stations






























Interactive Weather Map
Tropical Storm Tracking
New forecast layout! Learn more

10-Day Weather Forecast

Advertisements
Track Severe Weather on mobile